Woodbridge, Canada
Current Conditions -  °F | °C
As of 11:00 AM on Wednesday 22 Oct 2014 (Local Time) from CYYZ Reporting Station
Few Clouds Few Clouds  
Wind Chill: 39°   Ceiling: Unl
Heat Index: 45°   Visibility: 15mi
Dew Point: 37°   Wind: 10mph
Humidity: 76%   Direction: 350°N
Pressure: 30.28"   Gusts: NA
Location:  43.78°N, 79.59°W
Report Text: CYYZ 221500Z 35009KT 15SM FEW047 07/03 A3028 RMK SC2 SLP258
Loading
Personal Weather Stations






























Interactive Weather Map
Tropical Storm Tracking
New forecast layout! Learn more

10-Day Weather Forecast

Advertisements
Track Severe Weather on mobile